sensor_id;sensor_type;location;lat;lon;timestamp;P1;durP1;ratioP1;P2;durP2;ratioP2
75554;SDS011;66087;53.126;17.960;2023-05-29T00:01:54;6.50;;;2.40;;
75554;SDS011;66087;53.126;17.960;2023-05-29T00:04:21;7.10;;;3.30;;
75554;SDS011;66087;53.126;17.960;2023-05-29T00:06:48;7.40;;;2.70;;
75554;SDS011;66087;53.126;17.960;2023-05-29T00:09:14;8.40;;;4.00;;
75554;SDS011;66087;53.126;17.960;2023-05-29T00:11:41;9.30;;;3.80;;
75554;SDS011;66087;53.126;17.960;2023-05-29T00:14:08;9.00;;;5.20;;
75554;SDS011;66087;53.126;17.960;2023-05-29T00:16:39;7.80;;;3.30;;
75554;SDS011;66087;53.126;17.960;2023-05-29T00:19:06;7.70;;;4.10;;
75554;SDS011;66087;53.126;17.960;2023-05-29T00:21:32;5.90;;;2.80;;
75554;SDS011;66087;53.126;17.960;2023-05-29T00:24:01;7.40;;;3.60;;
75554;SDS011;66087;53.126;17.960;2023-05-29T00:26:28;8.20;;;3.40;;
75554;SDS011;66087;53.126;17.960;2023-05-29T00:28:58;6.80;;;3.30;;
75554;SDS011;66087;53.126;17.960;2023-05-29T00:31:24;8.10;;;2.90;;
75554;SDS011;66087;53.126;17.960;2023-05-29T00:33:53;7.10;;;3.10;;
75554;SDS011;66087;53.126;17.960;2023-05-29T00:36:21;8.90;;;3.40;;
75554;SDS011;66087;53.126;17.960;2023-05-29T00:38:53;6.60;;;2.90;;
75554;SDS011;66087;53.126;17.960;2023-05-29T00:41:20;7.60;;;3.10;;
75554;SDS011;66087;53.126;17.960;2023-05-29T00:43:46;7.60;;;3.30;;
75554;SDS011;66087;53.126;17.960;2023-05-29T00:46:13;7.40;;;2.80;;
75554;SDS011;66087;53.126;17.960;2023-05-29T00:48:42;7.30;;;3.00;;
75554;SDS011;66087;53.126;17.960;2023-05-29T00:51:09;6.80;;;3.10;;
75554;SDS011;66087;53.126;17.960;2023-05-29T00:53:38;9.60;;;3.20;;
75554;SDS011;66087;53.126;17.960;2023-05-29T00:56:09;6.20;;;2.40;;
75554;SDS011;66087;53.126;17.960;2023-05-29T00:58:39;7.50;;;2.90;;
75554;SDS011;66087;53.126;17.960;2023-05-29T01:01:07;5.70;;;2.90;;
75554;SDS011;66087;53.126;17.960;2023-05-29T01:03:34;7.00;;;3.00;;
75554;SDS011;66087;53.126;17.960;2023-05-29T01:06:03;6.90;;;3.00;;
75554;SDS011;66087;53.126;17.960;2023-05-29T01:08:30;7.00;;;2.60;;
75554;SDS011;66087;53.126;17.960;2023-05-29T01:11:00;5.50;;;2.60;;
75554;SDS011;66087;53.126;17.960;2023-05-29T01:13:37;8.90;;;3.30;;
75554;SDS011;66087;53.126;17.960;2023-05-29T01:16:21;6.80;;;2.70;;
75554;SDS011;66087;53.126;17.960;2023-05-29T01:18:57;6.70;;;3.30;;
75554;SDS011;66087;53.126;17.960;2023-05-29T01:27:20;8.30;;;3.40;;
75554;SDS011;66087;53.126;17.960;2023-05-29T01:29:51;11.30;;;3.80;;
75554;SDS011;66087;53.126;17.960;2023-05-29T01:32:21;10.80;;;3.40;;
75554;SDS011;66087;53.126;17.960;2023-05-29T01:34:49;7.50;;;3.20;;
75554;SDS011;66087;53.126;17.960;2023-05-29T01:37:15;6.50;;;3.20;;
75554;SDS011;66087;53.126;17.960;2023-05-29T01:39:42;7.10;;;3.50;;
75554;SDS011;66087;53.126;17.960;2023-05-29T01:42:09;7.40;;;3.40;;
75554;SDS011;66087;53.126;17.960;2023-05-29T01:44:36;7.30;;;2.90;;
75554;SDS011;66087;53.126;17.960;2023-05-29T01:47:04;9.60;;;3.30;;
75554;SDS011;66087;53.126;17.960;2023-05-29T01:49:34;7.60;;;2.90;;
75554;SDS011;66087;53.126;17.960;2023-05-29T01:52:04;7.00;;;3.60;;
75554;SDS011;66087;53.126;17.960;2023-05-29T01:54:31;7.00;;;2.90;;
75554;SDS011;66087;53.126;17.960;2023-05-29T01:56:58;9.40;;;3.20;;
75554;SDS011;66087;53.126;17.960;2023-05-29T01:59:25;9.20;;;3.50;;
75554;SDS011;66087;53.126;17.960;2023-05-29T02:01:53;7.60;;;3.30;;
75554;SDS011;66087;53.126;17.960;2023-05-29T02:04:20;7.40;;;3.30;;
75554;SDS011;66087;53.126;17.960;2023-05-29T02:06:48;8.30;;;3.80;;
75554;SDS011;66087;53.126;17.960;2023-05-29T02:09:18;5.90;;;2.90;;
75554;SDS011;66087;53.126;17.960;2023-05-29T02:11:44;8.20;;;3.40;;
75554;SDS011;66087;53.126;17.960;2023-05-29T02:14:13;10.20;;;4.40;;
75554;SDS011;66087;53.126;17.960;2023-05-29T02:16:40;8.50;;;4.50;;
75554;SDS011;66087;53.126;17.960;2023-05-29T02:19:07;8.40;;;3.40;;
75554;SDS011;66087;53.126;17.960;2023-05-29T02:21:34;8.10;;;3.30;;
75554;SDS011;66087;53.126;17.960;2023-05-29T02:24:01;8.80;;;3.30;;
75554;SDS011;66087;53.126;17.960;2023-05-29T02:26:28;11.10;;;3.00;;
75554;SDS011;66087;53.126;17.960;2023-05-29T02:28:54;6.90;;;3.70;;
75554;SDS011;66087;53.126;17.960;2023-05-29T02:31:21;9.50;;;3.90;;
75554;SDS011;66087;53.126;17.960;2023-05-29T02:33:48;7.00;;;3.30;;
75554;SDS011;66087;53.126;17.960;2023-05-29T02:36:15;7.10;;;3.30;;
75554;SDS011;66087;53.126;17.960;2023-05-29T02:38:42;7.80;;;3.40;;
75554;SDS011;66087;53.126;17.960;2023-05-29T02:41:09;7.70;;;3.60;;
75554;SDS011;66087;53.126;17.960;2023-05-29T02:43:35;9.10;;;3.50;;
75554;SDS011;66087;53.126;17.960;2023-05-29T02:46:02;11.10;;;4.30;;
75554;SDS011;66087;53.126;17.960;2023-05-29T02:48:29;8.90;;;3.30;;
75554;SDS011;66087;53.126;17.960;2023-05-29T02:50:55;8.90;;;3.50;;
75554;SDS011;66087;53.126;17.960;2023-05-29T02:53:24;7.20;;;3.60;;
75554;SDS011;66087;53.126;17.960;2023-05-29T02:55:51;7.30;;;4.20;;
75554;SDS011;66087;53.126;17.960;2023-05-29T02:58:21;9.00;;;3.80;;
75554;SDS011;66087;53.126;17.960;2023-05-29T03:00:50;8.80;;;3.50;;
75554;SDS011;66087;53.126;17.960;2023-05-29T03:03:18;7.70;;;3.40;;
75554;SDS011;66087;53.126;17.960;2023-05-29T03:05:44;8.20;;;3.50;;
75554;SDS011;66087;53.126;17.960;2023-05-29T03:08:12;7.90;;;4.10;;
75554;SDS011;66087;53.126;17.960;2023-05-29T03:10:39;6.80;;;3.40;;
75554;SDS011;66087;53.126;17.960;2023-05-29T03:13:06;10.30;;;4.20;;
75554;SDS011;66087;53.126;17.960;2023-05-29T03:15:37;10.80;;;4.00;;
75554;SDS011;66087;53.126;17.960;2023-05-29T03:18:06;8.50;;;3.60;;
75554;SDS011;66087;53.126;17.960;2023-05-29T03:20:33;9.80;;;4.10;;
75554;SDS011;66087;53.126;17.960;2023-05-29T03:23:00;6.80;;;3.80;;
75554;SDS011;66087;53.126;17.960;2023-05-29T03:25:28;7.90;;;3.60;;
75554;SDS011;66087;53.126;17.960;2023-05-29T03:27:55;8.40;;;3.70;;
75554;SDS011;66087;53.126;17.960;2023-05-29T03:30:22;10.50;;;3.90;;
75554;SDS011;66087;53.126;17.960;2023-05-29T03:32:51;9.30;;;3.90;;
75554;SDS011;66087;53.126;17.960;2023-05-29T03:35:17;8.00;;;3.30;;
75554;SDS011;66087;53.126;17.960;2023-05-29T03:37:46;10.10;;;3.80;;
75554;SDS011;66087;53.126;17.960;2023-05-29T03:40:13;10.80;;;3.30;;
75554;SDS011;66087;53.126;17.960;2023-05-29T03:42:40;6.80;;;2.90;;
75554;SDS011;66087;53.126;17.960;2023-05-29T03:45:07;10.10;;;3.60;;
75554;SDS011;66087;53.126;17.960;2023-05-29T03:47:35;8.10;;;3.60;;
75554;SDS011;66087;53.126;17.960;2023-05-29T03:50:02;8.70;;;3.30;;
75554;SDS011;66087;53.126;17.960;2023-05-29T03:52:31;11.00;;;3.80;;
75554;SDS011;66087;53.126;17.960;2023-05-29T03:54:59;7.90;;;3.30;;
75554;SDS011;66087;53.126;17.960;2023-05-29T03:57:26;8.40;;;3.80;;
75554;SDS011;66087;53.126;17.960;2023-05-29T03:59:53;8.20;;;3.40;;
75554;SDS011;66087;53.126;17.960;2023-05-29T04:02:20;10.70;;;4.00;;
75554;SDS011;66087;53.126;17.960;2023-05-29T04:04:47;8.30;;;3.60;;
75554;SDS011;66087;53.126;17.960;2023-05-29T04:07:13;10.90;;;4.40;;
75554;SDS011;66087;53.126;17.960;2023-05-29T04:09:40;9.80;;;5.00;;
75554;SDS011;66087;53.126;17.960;2023-05-29T04:12:07;9.00;;;3.80;;
75554;SDS011;66087;53.126;17.960;2023-05-29T04:14:34;9.00;;;3.40;;
75554;SDS011;66087;53.126;17.960;2023-05-29T04:17:00;8.10;;;3.40;;
75554;SDS011;66087;53.126;17.960;2023-05-29T04:19:27;10.10;;;3.70;;
75554;SDS011;66087;53.126;17.960;2023-05-29T04:21:55;10.60;;;4.10;;
75554;SDS011;66087;53.126;17.960;2023-05-29T04:24:24;7.90;;;3.10;;
75554;SDS011;66087;53.126;17.960;2023-05-29T04:26:57;8.10;;;3.50;;
75554;SDS011;66087;53.126;17.960;2023-05-29T04:29:28;7.80;;;3.60;;
75554;SDS011;66087;53.126;17.960;2023-05-29T04:31:55;8.30;;;3.90;;
75554;SDS011;66087;53.126;17.960;2023-05-29T04:34:22;9.50;;;3.70;;
75554;SDS011;66087;53.126;17.960;2023-05-29T04:36:49;8.50;;;4.00;;
75554;SDS011;66087;53.126;17.960;2023-05-29T04:39:16;8.20;;;3.50;;
75554;SDS011;66087;53.126;17.960;2023-05-29T04:41:43;8.00;;;4.00;;
75554;SDS011;66087;53.126;17.960;2023-05-29T04:44:12;8.50;;;4.20;;
75554;SDS011;66087;53.126;17.960;2023-05-29T04:46:45;9.80;;;4.10;;
75554;SDS011;66087;53.126;17.960;2023-05-29T04:49:13;10.40;;;4.20;;
75554;SDS011;66087;53.126;17.960;2023-05-29T04:51:40;10.40;;;4.10;;
75554;SDS011;66087;53.126;17.960;2023-05-29T04:54:10;11.30;;;4.20;;
75554;SDS011;66087;53.126;17.960;2023-05-29T04:56:39;12.80;;;5.10;;
75554;SDS011;66087;53.126;17.960;2023-05-29T04:59:07;12.40;;;4.40;;
75554;SDS011;66087;53.126;17.960;2023-05-29T05:01:37;8.90;;;4.40;;
75554;SDS011;66087;53.126;17.960;2023-05-29T05:04:09;12.80;;;4.00;;
75554;SDS011;66087;53.126;17.960;2023-05-29T05:06:38;9.30;;;4.30;;
75554;SDS011;66087;53.126;17.960;2023-05-29T05:09:11;10.80;;;4.10;;
75554;SDS011;66087;53.126;17.960;2023-05-29T05:11:41;9.50;;;3.70;;
75554;SDS011;66087;53.126;17.960;2023-05-29T05:14:10;8.60;;;3.90;;
75554;SDS011;66087;53.126;17.960;2023-05-29T05:16:37;9.60;;;3.40;;
75554;SDS011;66087;53.126;17.960;2023-05-29T05:19:04;11.00;;;4.30;;
75554;SDS011;66087;53.126;17.960;2023-05-29T05:21:33;9.70;;;5.20;;
75554;SDS011;66087;53.126;17.960;2023-05-29T05:24:00;9.10;;;4.00;;
75554;SDS011;66087;53.126;17.960;2023-05-29T05:26:27;13.50;;;4.20;;
75554;SDS011;66087;53.126;17.960;2023-05-29T05:28:56;11.60;;;3.70;;
75554;SDS011;66087;53.126;17.960;2023-05-29T05:31:24;11.30;;;4.10;;
75554;SDS011;66087;53.126;17.960;2023-05-29T05:33:52;9.60;;;3.90;;
75554;SDS011;66087;53.126;17.960;2023-05-29T05:36:21;11.30;;;3.70;;
75554;SDS011;66087;53.126;17.960;2023-05-29T05:38:54;8.80;;;3.60;;
75554;SDS011;66087;53.126;17.960;2023-05-29T05:41:28;9.70;;;4.40;;
75554;SDS011;66087;53.126;17.960;2023-05-29T05:43:58;11.30;;;3.90;;
75554;SDS011;66087;53.126;17.960;2023-05-29T05:46:34;8.80;;;4.70;;
75554;SDS011;66087;53.126;17.960;2023-05-29T05:49:02;10.00;;;4.60;;
75554;SDS011;66087;53.126;17.960;2023-05-29T05:51:30;6.50;;;3.00;;
75554;SDS011;66087;53.126;17.960;2023-05-29T05:54:00;10.70;;;3.50;;
75554;SDS011;66087;53.126;17.960;2023-05-29T05:56:30;10.50;;;3.60;;
75554;SDS011;66087;53.126;17.960;2023-05-29T05:58:58;8.80;;;3.60;;
75554;SDS011;66087;53.126;17.960;2023-05-29T06:01:24;9.10;;;2.90;;
75554;SDS011;66087;53.126;17.960;2023-05-29T06:03:51;8.70;;;3.00;;
75554;SDS011;66087;53.126;17.960;2023-05-29T06:06:18;6.30;;;2.80;;
75554;SDS011;66087;53.126;17.960;2023-05-29T06:08:45;7.70;;;3.40;;
75554;SDS011;66087;53.126;17.960;2023-05-29T06:11:16;6.90;;;3.60;;
75554;SDS011;66087;53.126;17.960;2023-05-29T06:13:48;6.80;;;3.20;;
75554;SDS011;66087;53.126;17.960;2023-05-29T06:16:20;11.20;;;3.30;;
75554;SDS011;66087;53.126;17.960;2023-05-29T06:18:47;6.80;;;2.60;;
75554;SDS011;66087;53.126;17.960;2023-05-29T06:21:17;7.50;;;2.80;;
75554;SDS011;66087;53.126;17.960;2023-05-29T06:23:48;7.70;;;2.90;;
75554;SDS011;66087;53.126;17.960;2023-05-29T06:26:15;7.10;;;2.40;;
75554;SDS011;66087;53.126;17.960;2023-05-29T06:28:42;5.40;;;2.00;;
75554;SDS011;66087;53.126;17.960;2023-05-29T06:31:09;5.00;;;1.90;;
75554;SDS011;66087;53.126;17.960;2023-05-29T06:33:36;7.00;;;2.40;;
75554;SDS011;66087;53.126;17.960;2023-05-29T06:36:05;7.10;;;3.50;;
75554;SDS011;66087;53.126;17.960;2023-05-29T06:38:33;6.80;;;2.70;;
75554;SDS011;66087;53.126;17.960;2023-05-29T06:41:04;7.30;;;2.30;;
75554;SDS011;66087;53.126;17.960;2023-05-29T06:43:38;8.50;;;2.60;;
75554;SDS011;66087;53.126;17.960;2023-05-29T06:46:10;7.40;;;2.50;;
75554;SDS011;66087;53.126;17.960;2023-05-29T06:48:37;6.10;;;2.70;;
75554;SDS011;66087;53.126;17.960;2023-05-29T06:51:04;7.20;;;2.30;;
75554;SDS011;66087;53.126;17.960;2023-05-29T06:54:01;7.40;;;2.60;;
75554;SDS011;66087;53.126;17.960;2023-05-29T06:56:28;6.90;;;2.90;;
75554;SDS011;66087;53.126;17.960;2023-05-29T06:58:56;5.90;;;2.50;;
75554;SDS011;66087;53.126;17.960;2023-05-29T07:01:25;7.10;;;2.50;;
75554;SDS011;66087;53.126;17.960;2023-05-29T07:03:59;6.70;;;3.20;;
75554;SDS011;66087;53.126;17.960;2023-05-29T07:06:26;7.50;;;3.50;;
75554;SDS011;66087;53.126;17.960;2023-05-29T07:08:52;7.80;;;3.00;;
75554;SDS011;66087;53.126;17.960;2023-05-29T07:11:19;7.50;;;2.70;;
75554;SDS011;66087;53.126;17.960;2023-05-29T07:13:47;7.20;;;3.10;;
75554;SDS011;66087;53.126;17.960;2023-05-29T07:16:14;8.50;;;3.40;;
75554;SDS011;66087;53.126;17.960;2023-05-29T07:18:42;9.20;;;3.70;;
75554;SDS011;66087;53.126;17.960;2023-05-29T07:21:11;8.90;;;3.60;;
75554;SDS011;66087;53.126;17.960;2023-05-29T07:23:38;6.70;;;3.20;;
75554;SDS011;66087;53.126;17.960;2023-05-29T07:26:06;7.00;;;3.00;;
75554;SDS011;66087;53.126;17.960;2023-05-29T07:28:33;8.10;;;4.30;;
75554;SDS011;66087;53.126;17.960;2023-05-29T07:30:59;7.10;;;3.20;;
75554;SDS011;66087;53.126;17.960;2023-05-29T07:33:26;8.40;;;3.00;;
75554;SDS011;66087;53.126;17.960;2023-05-29T07:35:55;9.10;;;4.10;;
75554;SDS011;66087;53.126;17.960;2023-05-29T07:38:22;8.10;;;3.10;;
75554;SDS011;66087;53.126;17.960;2023-05-29T07:40:48;7.10;;;2.60;;
75554;SDS011;66087;53.126;17.960;2023-05-29T07:43:25;5.60;;;2.30;;
75554;SDS011;66087;53.126;17.960;2023-05-29T07:45:56;7.40;;;2.30;;
75554;SDS011;66087;53.126;17.960;2023-05-29T07:48:23;6.00;;;2.20;;
75554;SDS011;66087;53.126;17.960;2023-05-29T07:50:51;7.00;;;2.50;;
75554;SDS011;66087;53.126;17.960;2023-05-29T07:53:19;6.80;;;3.00;;
75554;SDS011;66087;53.126;17.960;2023-05-29T07:56:06;5.30;;;2.50;;
75554;SDS011;66087;53.126;17.960;2023-05-29T07:58:52;5.90;;;2.40;;
75554;SDS011;66087;53.126;17.960;2023-05-29T08:01:23;5.60;;;2.30;;
75554;SDS011;66087;53.126;17.960;2023-05-29T08:03:50;3.90;;;1.80;;
75554;SDS011;66087;53.126;17.960;2023-05-29T08:06:20;6.60;;;2.30;;
75554;SDS011;66087;53.126;17.960;2023-05-29T08:08:47;5.90;;;1.90;;
75554;SDS011;66087;53.126;17.960;2023-05-29T08:11:14;6.70;;;2.50;;
75554;SDS011;66087;53.126;17.960;2023-05-29T08:13:43;4.00;;;1.70;;
75554;SDS011;66087;53.126;17.960;2023-05-29T08:16:12;5.60;;;2.70;;
75554;SDS011;66087;53.126;17.960;2023-05-29T08:18:40;5.70;;;2.80;;
75554;SDS011;66087;53.126;17.960;2023-05-29T08:21:07;6.40;;;2.30;;
75554;SDS011;66087;53.126;17.960;2023-05-29T08:23:35;5.00;;;2.00;;
75554;SDS011;66087;53.126;17.960;2023-05-29T08:26:02;6.60;;;2.40;;
75554;SDS011;66087;53.126;17.960;2023-05-29T08:28:40;5.10;;;2.00;;
75554;SDS011;66087;53.126;17.960;2023-05-29T08:31:07;6.30;;;2.00;;
75554;SDS011;66087;53.126;17.960;2023-05-29T08:33:34;6.10;;;2.20;;
75554;SDS011;66087;53.126;17.960;2023-05-29T08:36:01;6.50;;;1.80;;
75554;SDS011;66087;53.126;17.960;2023-05-29T08:38:27;5.90;;;1.60;;
75554;SDS011;66087;53.126;17.960;2023-05-29T08:40:54;6.90;;;2.30;;
75554;SDS011;66087;53.126;17.960;2023-05-29T08:43:28;6.80;;;2.30;;
75554;SDS011;66087;53.126;17.960;2023-05-29T08:46:00;5.10;;;1.90;;
75554;SDS011;66087;53.126;17.960;2023-05-29T08:48:29;4.70;;;2.30;;
75554;SDS011;66087;53.126;17.960;2023-05-29T08:50:57;6.20;;;2.30;;
75554;SDS011;66087;53.126;17.960;2023-05-29T08:53:28;4.30;;;1.90;;
75554;SDS011;66087;53.126;17.960;2023-05-29T08:55:55;5.80;;;1.80;;
75554;SDS011;66087;53.126;17.960;2023-05-29T08:58:24;4.60;;;1.90;;
75554;SDS011;66087;53.126;17.960;2023-05-29T09:00:52;5.80;;;2.70;;
75554;SDS011;66087;53.126;17.960;2023-05-29T09:03:19;5.50;;;1.80;;
75554;SDS011;66087;53.126;17.960;2023-05-29T09:05:49;4.70;;;1.70;;
75554;SDS011;66087;53.126;17.960;2023-05-29T09:08:16;6.10;;;2.80;;
75554;SDS011;66087;53.126;17.960;2023-05-29T09:10:43;5.40;;;2.20;;
75554;SDS011;66087;53.126;17.960;2023-05-29T09:13:11;5.40;;;2.40;;
75554;SDS011;66087;53.126;17.960;2023-05-29T09:15:42;5.80;;;1.60;;
75554;SDS011;66087;53.126;17.960;2023-05-29T09:18:09;6.50;;;2.00;;
75554;SDS011;66087;53.126;17.960;2023-05-29T09:20:36;4.40;;;1.80;;
75554;SDS011;66087;53.126;17.960;2023-05-29T09:23:04;4.00;;;1.60;;
75554;SDS011;66087;53.126;17.960;2023-05-29T09:25:32;4.20;;;2.00;;
75554;SDS011;66087;53.126;17.960;2023-05-29T09:28:02;5.90;;;2.00;;
75554;SDS011;66087;53.126;17.960;2023-05-29T09:30:39;5.00;;;1.80;;
75554;SDS011;66087;53.126;17.960;2023-05-29T09:33:09;3.90;;;1.80;;
75554;SDS011;66087;53.126;17.960;2023-05-29T09:35:38;6.10;;;2.10;;
75554;SDS011;66087;53.126;17.960;2023-05-29T09:38:08;6.30;;;2.50;;
75554;SDS011;66087;53.126;17.960;2023-05-29T09:40:39;4.70;;;2.10;;
75554;SDS011;66087;53.126;17.960;2023-05-29T09:43:11;6.60;;;2.10;;
75554;SDS011;66087;53.126;17.960;2023-05-29T09:45:40;7.40;;;1.90;;
75554;SDS011;66087;53.126;17.960;2023-05-29T09:48:10;6.10;;;2.20;;
75554;SDS011;66087;53.126;17.960;2023-05-29T09:50:42;5.00;;;2.00;;
75554;SDS011;66087;53.126;17.960;2023-05-29T09:53:17;6.80;;;2.10;;
75554;SDS011;66087;53.126;17.960;2023-05-29T09:55:47;4.80;;;2.20;;
75554;SDS011;66087;53.126;17.960;2023-05-29T09:58:19;7.40;;;2.40;;
75554;SDS011;66087;53.126;17.960;2023-05-29T10:00:47;5.60;;;2.30;;
75554;SDS011;66087;53.126;17.960;2023-05-29T10:03:18;5.50;;;1.80;;
75554;SDS011;66087;53.126;17.960;2023-05-29T10:05:54;8.70;;;1.70;;
75554;SDS011;66087;53.126;17.960;2023-05-29T10:08:23;6.10;;;1.80;;
75554;SDS011;66087;53.126;17.960;2023-05-29T10:11:02;5.10;;;2.10;;
75554;SDS011;66087;53.126;17.960;2023-05-29T10:13:32;3.80;;;1.70;;
75554;SDS011;66087;53.126;17.960;2023-05-29T10:16:03;6.10;;;1.70;;
75554;SDS011;66087;53.126;17.960;2023-05-29T10:18:37;4.90;;;1.70;;
75554;SDS011;66087;53.126;17.960;2023-05-29T10:21:08;5.30;;;1.60;;
75554;SDS011;66087;53.126;17.960;2023-05-29T10:23:40;4.90;;;2.50;;
75554;SDS011;66087;53.126;17.960;2023-05-29T10:26:10;4.30;;;1.80;;
75554;SDS011;66087;53.126;17.960;2023-05-29T10:28:44;7.10;;;2.10;;
75554;SDS011;66087;53.126;17.960;2023-05-29T10:31:18;4.40;;;2.20;;
75554;SDS011;66087;53.126;17.960;2023-05-29T10:33:56;6.70;;;2.20;;
75554;SDS011;66087;53.126;17.960;2023-05-29T10:36:38;4.40;;;1.60;;
75554;SDS011;66087;53.126;17.960;2023-05-29T10:39:11;5.70;;;1.70;;
75554;SDS011;66087;53.126;17.960;2023-05-29T10:41:39;5.90;;;1.90;;
75554;SDS011;66087;53.126;17.960;2023-05-29T10:44:37;5.50;;;2.00;;
75554;SDS011;66087;53.126;17.960;2023-05-29T10:47:05;4.80;;;2.20;;
75554;SDS011;66087;53.126;17.960;2023-05-29T10:49:32;4.90;;;2.00;;
75554;SDS011;66087;53.126;17.960;2023-05-29T10:52:02;5.40;;;2.00;;
75554;SDS011;66087;53.126;17.960;2023-05-29T10:54:39;5.40;;;1.60;;
75554;SDS011;66087;53.126;17.960;2023-05-29T10:57:08;4.30;;;1.80;;
75554;SDS011;66087;53.126;17.960;2023-05-29T10:59:36;4.10;;;1.60;;
75554;SDS011;66087;53.126;17.960;2023-05-29T11:02:03;4.10;;;1.80;;
75554;SDS011;66087;53.126;17.960;2023-05-29T11:04:32;6.20;;;1.80;;
75554;SDS011;66087;53.126;17.960;2023-05-29T11:07:00;4.70;;;1.70;;
75554;SDS011;66087;53.126;17.960;2023-05-29T11:09:31;5.40;;;1.90;;
75554;SDS011;66087;53.126;17.960;2023-05-29T11:15:03;4.90;;;2.10;;
75554;SDS011;66087;53.126;17.960;2023-05-29T11:17:46;4.20;;;1.80;;
75554;SDS011;66087;53.126;17.960;2023-05-29T11:23:14;4.60;;;1.60;;
75554;SDS011;66087;53.126;17.960;2023-05-29T11:25:44;5.90;;;2.40;;
75554;SDS011;66087;53.126;17.960;2023-05-29T11:28:13;4.20;;;1.90;;
75554;SDS011;66087;53.126;17.960;2023-05-29T11:30:41;4.70;;;1.90;;
75554;SDS011;66087;53.126;17.960;2023-05-29T11:33:27;4.70;;;1.70;;
75554;SDS011;66087;53.126;17.960;2023-05-29T11:35:56;4.90;;;1.70;;
75554;SDS011;66087;53.126;17.960;2023-05-29T11:38:27;3.80;;;2.00;;
75554;SDS011;66087;53.126;17.960;2023-05-29T11:40:54;4.20;;;2.10;;
75554;SDS011;66087;53.126;17.960;2023-05-29T11:43:22;6.20;;;1.90;;
75554;SDS011;66087;53.126;17.960;2023-05-29T11:45:49;4.00;;;1.80;;
75554;SDS011;66087;53.126;17.960;2023-05-29T11:48:16;7.10;;;2.10;;
75554;SDS011;66087;53.126;17.960;2023-05-29T11:50:45;5.40;;;2.40;;
75554;SDS011;66087;53.126;17.960;2023-05-29T11:53:12;4.40;;;1.90;;
75554;SDS011;66087;53.126;17.960;2023-05-29T11:55:39;4.70;;;2.10;;
75554;SDS011;66087;53.126;17.960;2023-05-29T11:58:06;4.40;;;2.20;;
75554;SDS011;66087;53.126;17.960;2023-05-29T12:00:34;4.70;;;2.00;;
75554;SDS011;66087;53.126;17.960;2023-05-29T12:03:04;4.60;;;1.60;;
75554;SDS011;66087;53.126;17.960;2023-05-29T12:05:33;4.80;;;2.30;;
75554;SDS011;66087;53.126;17.960;2023-05-29T12:08:12;4.40;;;1.60;;
75554;SDS011;66087;53.126;17.960;2023-05-29T12:10:45;5.80;;;1.90;;
75554;SDS011;66087;53.126;17.960;2023-05-29T12:13:14;5.80;;;1.80;;
75554;SDS011;66087;53.126;17.960;2023-05-29T12:15:44;5.00;;;1.80;;
75554;SDS011;66087;53.126;17.960;2023-05-29T12:18:13;4.30;;;1.90;;
75554;SDS011;66087;53.126;17.960;2023-05-29T12:20:41;4.70;;;1.70;;
75554;SDS011;66087;53.126;17.960;2023-05-29T12:23:08;5.20;;;1.70;;
75554;SDS011;66087;53.126;17.960;2023-05-29T12:25:35;4.90;;;1.80;;
75554;SDS011;66087;53.126;17.960;2023-05-29T12:28:08;5.50;;;1.90;;
75554;SDS011;66087;53.126;17.960;2023-05-29T12:30:38;5.20;;;1.70;;
75554;SDS011;66087;53.126;17.960;2023-05-29T12:33:06;3.70;;;1.60;;
75554;SDS011;66087;53.126;17.960;2023-05-29T12:35:36;4.80;;;2.00;;
75554;SDS011;66087;53.126;17.960;2023-05-29T12:38:04;4.70;;;1.90;;
75554;SDS011;66087;53.126;17.960;2023-05-29T12:40:34;5.80;;;2.20;;
75554;SDS011;66087;53.126;17.960;2023-05-29T12:43:05;3.70;;;2.30;;
75554;SDS011;66087;53.126;17.960;2023-05-29T12:45:37;3.70;;;1.70;;
75554;SDS011;66087;53.126;17.960;2023-05-29T12:48:05;6.00;;;2.20;;
75554;SDS011;66087;53.126;17.960;2023-05-29T12:50:34;5.90;;;2.40;;
75554;SDS011;66087;53.126;17.960;2023-05-29T12:53:04;7.00;;;2.30;;
75554;SDS011;66087;53.126;17.960;2023-05-29T12:55:40;5.90;;;2.80;;
75554;SDS011;66087;53.126;17.960;2023-05-29T12:58:09;5.60;;;2.30;;
75554;SDS011;66087;53.126;17.960;2023-05-29T13:00:38;5.10;;;2.40;;
75554;SDS011;66087;53.126;17.960;2023-05-29T13:03:10;4.50;;;2.40;;
75554;SDS011;66087;53.126;17.960;2023-05-29T13:05:37;4.40;;;2.30;;
75554;SDS011;66087;53.126;17.960;2023-05-29T13:08:07;5.90;;;3.10;;
75554;SDS011;66087;53.126;17.960;2023-05-29T13:10:34;4.20;;;2.70;;
75554;SDS011;66087;53.126;17.960;2023-05-29T13:13:01;5.40;;;2.90;;
75554;SDS011;66087;53.126;17.960;2023-05-29T13:15:31;5.80;;;2.90;;
75554;SDS011;66087;53.126;17.960;2023-05-29T13:17:59;6.00;;;2.70;;
75554;SDS011;66087;53.126;17.960;2023-05-29T13:20:25;5.60;;;2.90;;
75554;SDS011;66087;53.126;17.960;2023-05-29T13:22:52;6.30;;;3.10;;
75554;SDS011;66087;53.126;17.960;2023-05-29T13:25:20;4.80;;;2.80;;
75554;SDS011;66087;53.126;17.960;2023-05-29T13:27:49;5.00;;;2.90;;
75554;SDS011;66087;53.126;17.960;2023-05-29T13:30:16;3.50;;;1.90;;
75554;SDS011;66087;53.126;17.960;2023-05-29T13:32:45;5.10;;;2.40;;
75554;SDS011;66087;53.126;17.960;2023-05-29T13:35:14;4.50;;;1.90;;
75554;SDS011;66087;53.126;17.960;2023-05-29T13:37:41;6.20;;;2.80;;
75554;SDS011;66087;53.126;17.960;2023-05-29T13:40:09;5.40;;;3.00;;
75554;SDS011;66087;53.126;17.960;2023-05-29T13:42:36;6.30;;;2.80;;
75554;SDS011;66087;53.126;17.960;2023-05-29T13:45:06;6.80;;;2.60;;
75554;SDS011;66087;53.126;17.960;2023-05-29T13:47:34;4.90;;;2.40;;
75554;SDS011;66087;53.126;17.960;2023-05-29T13:50:02;5.00;;;2.40;;
75554;SDS011;66087;53.126;17.960;2023-05-29T13:52:31;3.60;;;2.50;;
75554;SDS011;66087;53.126;17.960;2023-05-29T13:55:01;6.10;;;2.50;;
75554;SDS011;66087;53.126;17.960;2023-05-29T13:57:37;4.10;;;2.50;;
75554;SDS011;66087;53.126;17.960;2023-05-29T14:00:06;5.60;;;2.60;;
75554;SDS011;66087;53.126;17.960;2023-05-29T14:02:33;6.20;;;2.40;;
75554;SDS011;66087;53.126;17.960;2023-05-29T14:05:01;6.00;;;2.50;;
75554;SDS011;66087;53.126;17.960;2023-05-29T14:07:29;6.00;;;2.70;;
75554;SDS011;66087;53.126;17.960;2023-05-29T14:09:56;4.90;;;2.60;;
75554;SDS011;66087;53.126;17.960;2023-05-29T14:12:23;6.60;;;2.90;;
75554;SDS011;66087;53.126;17.960;2023-05-29T14:14:49;4.50;;;2.30;;
75554;SDS011;66087;53.126;17.960;2023-05-29T14:17:16;5.60;;;3.00;;
75554;SDS011;66087;53.126;17.960;2023-05-29T14:19:43;6.00;;;3.00;;
75554;SDS011;66087;53.126;17.960;2023-05-29T14:22:12;6.30;;;2.80;;
75554;SDS011;66087;53.126;17.960;2023-05-29T14:24:38;6.10;;;2.70;;
75554;SDS011;66087;53.126;17.960;2023-05-29T14:27:05;8.10;;;3.40;;
75554;SDS011;66087;53.126;17.960;2023-05-29T14:29:32;7.10;;;3.10;;
75554;SDS011;66087;53.126;17.960;2023-05-29T14:31:59;4.80;;;3.10;;
75554;SDS011;66087;53.126;17.960;2023-05-29T14:37:19;5.70;;;2.70;;
75554;SDS011;66087;53.126;17.960;2023-05-29T14:39:50;5.20;;;2.80;;
75554;SDS011;66087;53.126;17.960;2023-05-29T14:42:19;6.30;;;3.30;;
75554;SDS011;66087;53.126;17.960;2023-05-29T14:44:47;6.80;;;3.60;;
75554;SDS011;66087;53.126;17.960;2023-05-29T14:47:13;5.70;;;3.20;;
75554;SDS011;66087;53.126;17.960;2023-05-29T14:49:45;4.10;;;3.00;;
75554;SDS011;66087;53.126;17.960;2023-05-29T14:52:11;4.70;;;3.50;;
75554;SDS011;66087;53.126;17.960;2023-05-29T14:54:38;4.80;;;2.70;;
75554;SDS011;66087;53.126;17.960;2023-05-29T14:57:05;7.00;;;3.60;;
75554;SDS011;66087;53.126;17.960;2023-05-29T14:59:32;6.30;;;3.90;;